createdAt,value
2018-11-03T00:01:00.411Z,6.93
2018-11-03T00:03:27.954Z,8.80
2018-11-03T00:05:55.399Z,7.90
2018-11-03T00:08:22.657Z,7.93
2018-11-03T00:10:49.922Z,8.43
2018-11-03T00:13:17.099Z,10.67
2018-11-03T00:15:44.344Z,8.13
2018-11-03T00:18:11.511Z,17.93
2018-11-03T00:20:38.805Z,8.67
2018-11-03T00:23:06.114Z,9.00
2018-11-03T00:25:33.405Z,9.30
2018-11-03T00:28:00.608Z,10.40
2018-11-03T00:30:27.790Z,12.80
2018-11-03T00:32:54.974Z,10.67
2018-11-03T00:35:22.162Z,11.27
2018-11-03T00:37:49.386Z,12.00
2018-11-03T00:40:16.587Z,14.43
2018-11-03T00:42:44.396Z,15.23
2018-11-03T00:45:12.366Z,14.87
2018-11-03T00:47:40.472Z,12.60
2018-11-03T00:50:08.107Z,15.77
2018-11-03T00:52:35.304Z,17.73
2018-11-03T00:55:02.834Z,16.63
2018-11-03T00:57:30.047Z,13.20
2018-11-03T00:59:57.271Z,14.60
2018-11-03T01:02:24.441Z,14.30
2018-11-03T01:04:51.614Z,19.97
2018-11-03T01:07:18.828Z,18.97
2018-11-03T01:09:45.991Z,16.10
2018-11-03T01:12:13.217Z,17.50
2018-11-03T01:14:40.387Z,16.23
2018-11-03T01:17:07.595Z,15.47
2018-11-03T01:19:34.775Z,14.07
2018-11-03T01:22:02.061Z,17.13
2018-11-03T01:24:29.322Z,21.60
2018-11-03T01:26:56.548Z,16.37
2018-11-03T01:29:23.722Z,23.07
2018-11-03T01:31:50.878Z,29.17
2018-11-03T01:34:18.087Z,18.57
2018-11-03T01:36:45.286Z,15.00
2018-11-03T01:39:12.758Z,19.83
2018-11-03T01:41:39.970Z,32.07
2018-11-03T01:44:07.219Z,18.23
2018-11-03T01:46:34.627Z,23.30
2018-11-03T01:49:02.127Z,20.13
2018-11-03T01:51:29.286Z,24.00
2018-11-03T01:53:56.543Z,16.60
2018-11-03T01:56:23.711Z,21.73
2018-11-03T01:58:50.923Z,20.20
2018-11-03T02:01:18.087Z,20.10
2018-11-03T02:03:45.289Z,14.83
2018-11-03T02:06:12.485Z,28.10
2018-11-03T02:08:39.926Z,21.00
2018-11-03T02:11:07.126Z,16.93
2018-11-03T02:13:34.395Z,16.93
2018-11-03T02:16:01.759Z,17.17
2018-11-03T02:18:28.963Z,16.40
2018-11-03T02:20:56.142Z,15.47
2018-11-03T02:23:23.319Z,17.90
2018-11-03T02:25:50.519Z,15.97
2018-11-03T02:28:17.855Z,21.47
2018-11-03T02:30:45.019Z,19.27
2018-11-03T02:33:12.210Z,17.60
2018-11-03T02:35:39.382Z,20.57
2018-11-03T02:38:06.583Z,20.90
2018-11-03T02:40:33.751Z,14.90
2018-11-03T02:43:01.322Z,17.63
2018-11-03T02:45:28.546Z,20.83
2018-11-03T02:47:55.718Z,20.77
2018-11-03T02:50:22.904Z,16.13
2018-11-03T02:52:50.094Z,22.30
2018-11-03T02:55:17.270Z,20.47
2018-11-03T02:57:44.462Z,19.23
2018-11-03T03:00:12.026Z,22.37
2018-11-03T03:02:39.349Z,19.43
2018-11-03T03:05:06.840Z,19.30
2018-11-03T03:07:34.046Z,17.47
2018-11-03T03:10:01.472Z,18.57
2018-11-03T03:12:28.686Z,17.43
2018-11-03T03:14:55.903Z,16.30
2018-11-03T03:17:23.074Z,25.50
2018-11-03T03:19:50.474Z,20.17
2018-11-03T03:22:17.651Z,17.40
2018-11-03T03:24:44.851Z,15.83
2018-11-03T03:27:12.036Z,16.63
2018-11-03T03:29:39.433Z,19.30
2018-11-03T03:32:06.727Z,22.67
2018-11-03T03:34:34.012Z,19.10
2018-11-03T03:37:01.207Z,21.40
2018-11-03T03:39:28.480Z,22.30
2018-11-03T03:41:55.704Z,21.97
2018-11-03T03:44:22.898Z,19.07
2018-11-03T03:46:50.091Z,18.53
2018-11-03T03:49:17.290Z,17.83
2018-11-03T03:51:44.470Z,18.10
2018-11-03T03:54:11.666Z,21.63
2018-11-03T03:56:38.838Z,27.30
2018-11-03T03:59:06.072Z,22.47
2018-11-03T04:01:33.281Z,24.53
2018-11-03T04:04:00.475Z,20.80
2018-11-03T04:06:27.750Z,21.10
2018-11-03T04:08:54.946Z,17.10
2018-11-03T04:11:22.118Z,16.47
2018-11-03T04:13:49.621Z,17.53
2018-11-03T04:16:16.824Z,17.80
2018-11-03T04:18:44.020Z,17.83
2018-11-03T04:21:15.775Z,17.80
2018-11-03T04:23:42.975Z,24.90
2018-11-03T04:26:10.163Z,24.03
2018-11-03T04:28:37.374Z,21.40
2018-11-03T04:31:04.791Z,25.30
2018-11-03T04:33:32.406Z,17.53
2018-11-03T04:35:59.611Z,20.63
2018-11-03T04:38:26.794Z,25.73
2018-11-03T04:40:53.995Z,19.60
2018-11-03T04:43:21.219Z,24.37
2018-11-03T04:45:48.415Z,19.73
2018-11-03T04:48:15.627Z,20.10
2018-11-03T04:50:42.817Z,19.07
2018-11-03T04:53:09.998Z,20.63
2018-11-03T04:55:37.199Z,19.50
2018-11-03T04:58:04.476Z,16.70
2018-11-03T05:00:31.678Z,21.10
2018-11-03T05:02:58.863Z,19.37
2018-11-03T05:05:26.058Z,17.97
2018-11-03T05:07:53.275Z,19.43
2018-11-03T05:10:20.485Z,20.40
2018-11-03T05:12:47.679Z,23.50
2018-11-03T05:15:14.878Z,20.67
2018-11-03T05:17:43.847Z,23.30
2018-11-03T05:20:11.031Z,23.77
2018-11-03T05:22:38.248Z,26.43
2018-11-03T05:25:05.435Z,24.93
2018-11-03T05:27:32.660Z,25.23
2018-11-03T05:29:59.835Z,25.07
2018-11-03T05:32:27.046Z,26.43
2018-11-03T05:34:54.255Z,26.00
2018-11-03T05:37:21.501Z,21.00
2018-11-03T05:39:48.707Z,18.50
2018-11-03T05:42:15.878Z,19.90
2018-11-03T05:44:43.075Z,21.37
2018-11-03T05:47:10.283Z,21.80
2018-11-03T05:49:37.485Z,25.77
2018-11-03T05:52:04.666Z,27.03
2018-11-03T05:54:31.873Z,21.60
2018-11-03T05:56:59.046Z,24.77
2018-11-03T05:59:26.247Z,18.43
2018-11-03T06:01:53.432Z,19.53
2018-11-03T06:04:20.636Z,24.10
2018-11-03T06:06:47.810Z,23.20
2018-11-03T06:09:15.063Z,21.00
2018-11-03T06:11:42.241Z,20.10
2018-11-03T06:14:09.447Z,26.57
2018-11-03T06:16:36.629Z,29.40
2018-11-03T06:19:03.870Z,23.57
2018-11-03T06:21:31.039Z,20.77
2018-11-03T06:23:58.251Z,30.30
2018-11-03T06:26:25.435Z,24.40
2018-11-03T06:28:52.767Z,22.07
2018-11-03T06:31:19.975Z,22.07
2018-11-03T06:33:47.273Z,33.13
2018-11-03T06:36:14.483Z,28.13
2018-11-03T06:38:41.698Z,22.27
2018-11-03T06:41:08.893Z,20.70
2018-11-03T06:43:36.066Z,22.50
2018-11-03T06:46:03.261Z,28.13
2018-11-03T06:48:30.462Z,21.10
2018-11-03T06:50:57.674Z,21.70
2018-11-03T06:53:24.839Z,24.30
2018-11-03T06:55:52.038Z,23.03
2018-11-03T06:58:19.227Z,23.23
2018-11-03T07:00:46.435Z,32.07
2018-11-03T07:03:13.646Z,21.00
2018-11-03T07:05:41.047Z,24.50
2018-11-03T07:08:08.226Z,28.67
2018-11-03T07:10:35.427Z,23.53
2018-11-03T07:13:03.091Z,28.30
2018-11-03T07:15:30.378Z,26.70
2018-11-03T07:17:57.552Z,21.27
2018-11-03T07:20:24.743Z,26.57
2018-11-03T07:22:51.932Z,26.27
2018-11-03T07:28:00.668Z,25.50
2018-11-03T07:30:28.094Z,32.57
2018-11-03T07:32:55.291Z,24.50
2018-11-03T07:35:22.470Z,26.10
2018-11-03T07:37:49.669Z,23.83
2018-11-03T07:40:16.839Z,26.10
2018-11-03T07:42:44.059Z,25.70
2018-11-03T07:45:11.286Z,27.17
2018-11-03T07:47:38.474Z,29.80
2018-11-03T07:50:06.763Z,31.70
2018-11-03T07:52:34.141Z,25.13
2018-11-03T07:55:01.330Z,28.70
2018-11-03T07:57:28.510Z,29.57
2018-11-03T07:59:55.682Z,29.57
2018-11-03T08:02:22.883Z,25.27
2018-11-03T08:04:50.084Z,30.70
2018-11-03T08:07:17.279Z,27.60
2018-11-03T08:09:44.586Z,28.53
2018-11-03T08:12:11.755Z,28.60
2018-11-03T08:14:38.955Z,36.53
2018-11-03T08:17:06.134Z,31.33
2018-11-03T08:19:33.326Z,30.53
2018-11-03T08:22:00.526Z,26.63
2018-11-03T08:24:27.731Z,29.67
2018-11-03T08:26:54.918Z,28.93
2018-11-03T08:29:22.094Z,29.23
2018-11-03T08:31:49.281Z,33.17
2018-11-03T08:34:16.495Z,28.27
2018-11-03T08:36:43.686Z,29.23
2018-11-03T08:39:11.561Z,30.20
2018-11-03T08:41:39.020Z,30.40
2018-11-03T08:44:06.170Z,30.27
2018-11-03T08:46:34.127Z,30.43
2018-11-03T08:49:01.444Z,25.00
2018-11-03T08:51:28.662Z,27.80
2018-11-03T08:53:55.867Z,22.00
2018-11-03T08:56:23.040Z,22.90
2018-11-03T08:58:50.248Z,25.60
2018-11-03T09:01:17.437Z,24.87
2018-11-03T09:03:44.636Z,25.07
2018-11-03T09:06:11.812Z,21.23
2018-11-03T09:08:39.065Z,22.90
2018-11-03T09:11:06.242Z,25.53
2018-11-03T09:13:33.413Z,26.13
2018-11-03T09:16:00.611Z,21.43
2018-11-03T09:18:27.818Z,22.93
2018-11-03T09:20:55.034Z,21.13
2018-11-03T09:23:22.242Z,24.97
2018-11-03T09:25:49.479Z,21.10
2018-11-03T09:28:16.748Z,16.87
2018-11-03T09:30:43.948Z,19.43
2018-11-03T09:33:11.142Z,17.80
2018-11-03T09:35:38.346Z,18.17
2018-11-03T09:38:05.555Z,17.70
2018-11-03T09:40:32.827Z,23.60
2018-11-03T09:43:00.050Z,18.30
2018-11-03T09:45:27.244Z,22.83
2018-11-03T09:47:54.431Z,20.70
2018-11-03T09:50:21.941Z,19.73
2018-11-03T09:52:49.589Z,19.80
2018-11-03T09:55:18.592Z,20.30
2018-11-03T09:57:46.417Z,22.00
2018-11-03T10:00:16.747Z,17.73
2018-11-03T10:02:43.932Z,21.97
2018-11-03T10:05:12.340Z,19.60
2018-11-03T10:07:39.553Z,19.83
2018-11-03T10:10:07.918Z,23.23
2018-11-03T10:12:35.090Z,23.63
2018-11-03T10:15:03.401Z,22.53
2018-11-03T10:17:30.650Z,17.03
2018-11-03T10:19:57.854Z,18.67
2018-11-03T10:22:25.106Z,16.80
2018-11-03T10:24:52.252Z,17.70
2018-11-03T10:27:19.464Z,17.93
2018-11-03T10:29:46.848Z,21.83
2018-11-03T10:32:14.033Z,18.60
2018-11-03T10:34:41.202Z,20.73
2018-11-03T10:37:08.402Z,17.80
2018-11-03T10:39:35.695Z,22.43
2018-11-03T10:42:02.891Z,18.60
2018-11-03T10:44:30.103Z,16.53
2018-11-03T10:46:57.270Z,15.37
2018-11-03T10:49:24.661Z,13.30
2018-11-03T10:51:51.835Z,15.80
2018-11-03T10:54:19.048Z,15.70
2018-11-03T10:56:46.236Z,13.50
2018-11-03T10:59:13.394Z,14.80
2018-11-03T11:01:46.071Z,14.53
2018-11-03T11:05:21.741Z,14.20
2018-11-03T11:07:54.444Z,17.47
2018-11-03T11:10:27.170Z,14.97
2018-11-03T11:12:54.372Z,16.73
2018-11-03T11:15:21.575Z,24.17
2018-11-03T11:17:48.742Z,11.90
2018-11-03T11:20:15.951Z,12.20
2018-11-03T11:22:43.123Z,15.80
2018-11-03T11:25:11.462Z,14.53
2018-11-03T11:27:38.398Z,14.67
2018-11-03T11:30:06.807Z,11.80
2018-11-03T11:32:34.097Z,13.20
2018-11-03T11:35:01.564Z,15.57
2018-11-03T11:37:28.769Z,13.80
2018-11-03T11:39:55.946Z,15.17
2018-11-03T11:42:23.130Z,13.10
2018-11-03T11:44:50.310Z,14.37
2018-11-03T11:47:17.514Z,10.63
2018-11-03T11:49:44.793Z,18.60
2018-11-03T11:52:12.023Z,14.70
2018-11-03T11:54:39.234Z,14.30
2018-11-03T11:57:06.466Z,14.33
2018-11-03T11:59:33.667Z,12.90
2018-11-03T12:02:01.367Z,11.90
2018-11-03T12:04:28.530Z,10.00
2018-11-03T12:06:55.727Z,14.67
2018-11-03T12:09:22.894Z,12.30
2018-11-03T12:11:50.107Z,10.60
2018-11-03T12:14:17.289Z,11.83
2018-11-03T12:16:44.523Z,12.90
2018-11-03T12:19:11.726Z,14.53
2018-11-03T12:21:38.902Z,11.70
2018-11-03T12:24:06.111Z,18.77
2018-11-03T12:26:33.298Z,14.97
2018-11-03T12:29:00.487Z,14.73
2018-11-03T12:31:27.694Z,14.90
2018-11-03T12:33:54.913Z,11.67
2018-11-03T12:36:22.070Z,15.47
2018-11-03T12:38:49.285Z,13.47
2018-11-03T12:41:16.528Z,12.97
2018-11-03T12:43:43.693Z,14.60
2018-11-03T12:46:10.918Z,14.53
2018-11-03T12:48:38.073Z,19.40
2018-11-03T12:51:05.243Z,11.10
2018-11-03T12:53:32.462Z,11.67
2018-11-03T12:55:59.626Z,12.90
2018-11-03T12:58:26.834Z,12.70
2018-11-03T13:00:53.998Z,11.90
2018-11-03T13:03:21.243Z,13.23
2018-11-03T13:05:48.397Z,11.60
2018-11-03T13:08:15.584Z,15.93
2018-11-03T13:10:42.977Z,14.20
2018-11-03T13:13:10.159Z,13.87
2018-11-03T13:15:37.391Z,10.30
2018-11-03T13:18:04.823Z,11.30
2018-11-03T13:20:32.023Z,12.90
2018-11-03T13:22:59.288Z,9.53
2018-11-03T13:25:26.431Z,11.50
2018-11-03T13:27:53.704Z,10.73
2018-11-03T13:30:20.864Z,11.53
2018-11-03T13:32:48.224Z,13.23
2018-11-03T13:35:15.424Z,11.47
2018-11-03T13:37:42.603Z,12.93
2018-11-03T13:40:11.264Z,12.13
2018-11-03T13:42:38.433Z,16.50
2018-11-03T13:45:06.191Z,11.83
2018-11-03T13:47:33.436Z,13.10
2018-11-03T13:50:00.570Z,10.63
2018-11-03T13:52:27.754Z,11.30
2018-11-03T13:54:54.915Z,16.90
2018-11-03T13:57:22.130Z,8.97
2018-11-03T13:59:49.295Z,12.07
2018-11-03T14:02:16.480Z,9.80
2018-11-03T14:04:43.683Z,12.73
2018-11-03T14:07:10.855Z,12.97
2018-11-03T14:09:38.030Z,11.87
2018-11-03T14:12:05.523Z,11.73
2018-11-03T14:14:32.698Z,13.47
2018-11-03T14:16:59.904Z,16.33
2018-11-03T14:19:27.090Z,14.67
2018-11-03T14:21:54.264Z,14.10
2018-11-03T14:24:21.460Z,12.60
2018-11-03T14:26:48.655Z,17.20
2018-11-03T14:29:15.862Z,17.30
2018-11-03T14:31:43.031Z,11.47
2018-11-03T14:34:10.230Z,14.13
2018-11-03T14:36:37.419Z,13.13
2018-11-03T14:39:06.131Z,13.40
2018-11-03T14:41:33.302Z,15.83
2018-11-03T14:44:00.484Z,14.00
2018-11-03T14:46:27.671Z,14.23
2018-11-03T14:48:54.866Z,14.90
2018-11-03T14:51:22.045Z,19.00
2018-11-03T14:53:49.225Z,19.37
2018-11-03T14:56:16.451Z,22.60
2018-11-03T14:58:43.618Z,16.20
2018-11-03T15:01:10.822Z,14.63
2018-11-03T15:03:38.010Z,15.23
2018-11-03T15:06:05.232Z,18.10
2018-11-03T15:08:32.528Z,19.17
2018-11-03T15:10:59.616Z,15.37
2018-11-03T15:13:26.836Z,17.47
2018-11-03T15:15:54.010Z,20.03
2018-11-03T15:18:21.196Z,20.63
2018-11-03T15:20:48.418Z,18.40
2018-11-03T15:23:15.633Z,17.33
2018-11-03T15:25:42.868Z,18.30
2018-11-03T15:28:10.062Z,16.20
2018-11-03T15:30:37.472Z,14.30
2018-11-03T15:33:04.951Z,16.43
2018-11-03T15:35:32.236Z,16.17
2018-11-03T15:37:59.457Z,17.03
2018-11-03T15:40:26.606Z,12.70
2018-11-03T15:42:53.807Z,15.90
2018-11-03T15:45:20.991Z,14.30
2018-11-03T15:47:48.296Z,17.27
2018-11-03T15:50:15.852Z,14.73
2018-11-03T15:52:43.654Z,16.80
2018-11-03T15:55:10.851Z,17.10
2018-11-03T15:57:38.021Z,19.77
2018-11-03T16:00:07.252Z,15.63
2018-11-03T16:02:34.415Z,13.63
2018-11-03T16:05:01.962Z,14.10
2018-11-03T16:07:29.143Z,14.73
2018-11-03T16:09:56.360Z,16.80
2018-11-03T16:12:23.560Z,12.30
2018-11-03T16:14:50.763Z,14.57
2018-11-03T16:17:17.939Z,13.07
2018-11-03T16:19:45.857Z,16.93
2018-11-03T16:22:13.065Z,19.80
2018-11-03T16:24:40.224Z,14.53
2018-11-03T16:27:07.656Z,15.00
2018-11-03T16:29:34.838Z,18.20
2018-11-03T16:32:02.095Z,21.03
2018-11-03T16:34:29.214Z,12.60
2018-11-03T16:36:56.383Z,15.20
2018-11-03T16:39:23.659Z,21.37
2018-11-03T16:41:50.856Z,12.63
2018-11-03T16:44:18.019Z,14.47
2018-11-03T16:46:45.257Z,14.17
2018-11-03T16:49:13.735Z,15.70
2018-11-03T16:51:40.955Z,13.73
2018-11-03T16:54:08.215Z,12.93
2018-11-03T16:56:35.405Z,11.50
2018-11-03T16:59:02.613Z,11.50
2018-11-03T17:01:29.825Z,13.93
2018-11-03T17:03:56.981Z,10.73
2018-11-03T17:06:24.175Z,14.67
2018-11-03T17:08:51.333Z,13.20
2018-11-03T17:11:18.537Z,11.60
2018-11-03T17:13:45.718Z,14.23
2018-11-03T17:16:13.041Z,10.87
2018-11-03T17:18:40.294Z,11.80
2018-11-03T17:21:07.418Z,13.87
2018-11-03T17:23:34.603Z,14.70
2018-11-03T17:26:02.343Z,16.13
2018-11-03T17:28:29.517Z,16.17
2018-11-03T17:30:56.722Z,18.57
2018-11-03T17:33:23.922Z,10.43
2018-11-03T17:35:51.082Z,11.80
2018-11-03T17:38:18.279Z,10.40
2018-11-03T17:40:45.492Z,9.80
2018-11-03T17:43:12.807Z,12.20
2018-11-03T17:45:39.914Z,17.10
2018-11-03T17:48:07.120Z,16.70
2018-11-03T17:50:34.294Z,13.37
2018-11-03T17:53:02.050Z,13.00
2018-11-03T17:55:29.211Z,14.27
2018-11-03T17:57:56.416Z,12.87
2018-11-03T18:00:25.070Z,11.73
2018-11-03T18:02:52.030Z,12.20
2018-11-03T18:05:19.215Z,11.13
2018-11-03T18:07:46.551Z,12.50
2018-11-03T18:10:13.954Z,16.80
2018-11-03T18:12:41.694Z,20.40
2018-11-03T18:15:09.230Z,13.33
2018-11-03T18:17:36.427Z,14.30
2018-11-03T18:20:03.852Z,12.40
2018-11-03T18:22:31.051Z,13.00
2018-11-03T18:24:58.216Z,14.40
2018-11-03T18:27:25.406Z,11.30
2018-11-03T18:29:52.582Z,12.53
2018-11-03T18:32:19.771Z,11.43
2018-11-03T18:34:47.028Z,12.20
2018-11-03T18:37:14.103Z,11.73
2018-11-03T18:39:41.290Z,12.90
2018-11-03T18:42:08.463Z,15.30
2018-11-03T18:44:35.648Z,11.37
2018-11-03T18:47:02.840Z,15.63
2018-11-03T18:49:30.102Z,14.73
2018-11-03T18:51:57.446Z,16.20
2018-11-03T18:54:24.615Z,22.07
2018-11-03T18:56:51.808Z,19.73
2018-11-03T18:59:19.009Z,15.50
2018-11-03T19:01:46.200Z,14.43
2018-11-03T19:04:13.715Z,17.47
2018-11-03T19:06:40.891Z,16.03
2018-11-03T19:09:08.534Z,11.17
2018-11-03T19:11:35.719Z,13.03
2018-11-03T19:14:02.883Z,11.93
2018-11-03T19:16:30.099Z,15.37
2018-11-03T19:18:57.269Z,21.40
2018-11-03T19:21:24.457Z,14.27
2018-11-03T19:23:51.655Z,14.80
2018-11-03T19:26:18.910Z,15.53
2018-11-03T19:28:46.096Z,19.83
2018-11-03T19:31:13.275Z,18.83
2018-11-03T19:33:40.718Z,19.40
2018-11-03T19:36:08.342Z,18.90
2018-11-03T19:38:36.056Z,20.30
2018-11-03T19:41:03.743Z,19.50
2018-11-03T19:43:30.910Z,18.00
2018-11-03T19:45:58.109Z,15.87
2018-11-03T19:48:25.304Z,19.30
2018-11-03T19:50:53.406Z,25.73
2018-11-03T19:53:20.824Z,16.53
2018-11-03T19:55:48.251Z,18.13
2018-11-03T19:58:15.474Z,19.40
2018-11-03T20:00:43.534Z,18.80
2018-11-03T20:03:11.521Z,20.30
2018-11-03T20:05:39.557Z,17.00
2018-11-03T20:08:06.797Z,18.97
2018-11-03T20:10:34.942Z,22.30
2018-11-03T20:13:03.377Z,18.47
2018-11-03T20:15:31.092Z,20.90
2018-11-03T20:17:58.962Z,18.53
2018-11-03T20:20:26.207Z,18.10
2018-11-03T20:22:53.394Z,20.40
2018-11-03T20:25:20.587Z,22.03
2018-11-03T20:27:47.763Z,16.80
2018-11-03T20:30:16.304Z,19.17
2018-11-03T20:32:44.551Z,17.80
2018-11-03T20:35:11.761Z,19.60
2018-11-03T20:37:39.150Z,16.87
2018-11-03T20:40:06.719Z,19.13
2018-11-03T20:42:33.927Z,15.20
2018-11-03T20:45:01.280Z,20.87
2018-11-03T20:47:28.440Z,18.17
2018-11-03T20:49:55.647Z,17.90
2018-11-03T20:52:22.847Z,16.40
2018-11-03T20:54:50.024Z,21.67
2018-11-03T20:57:17.187Z,18.13
2018-11-03T20:59:44.394Z,18.00
2018-11-03T21:02:11.643Z,22.60
2018-11-03T21:04:38.758Z,17.10
2018-11-03T21:07:05.920Z,23.43
2018-11-03T21:09:33.146Z,17.30
2018-11-03T21:12:00.339Z,18.47
2018-11-03T21:14:27.543Z,20.70
2018-11-03T21:16:54.710Z,31.03
2018-11-03T21:19:21.899Z,18.40
2018-11-03T21:21:49.065Z,16.60
2018-11-03T21:24:16.329Z,17.27
2018-11-03T21:26:43.434Z,19.60
2018-11-03T21:29:10.607Z,20.93
2018-11-03T21:31:37.839Z,18.90
2018-11-03T21:34:05.159Z,37.13
2018-11-03T21:36:32.347Z,23.93
2018-11-03T21:38:59.516Z,23.23
2018-11-03T21:41:26.713Z,26.40
2018-11-03T21:43:53.913Z,26.70
2018-11-03T21:46:21.130Z,23.33
2018-11-03T21:48:48.315Z,28.33
2018-11-03T21:51:15.511Z,29.07
2018-11-03T21:53:42.687Z,28.93
2018-11-03T21:56:09.867Z,26.00
2018-11-03T21:58:37.045Z,20.20
2018-11-03T22:01:04.348Z,20.00
2018-11-03T22:03:31.523Z,21.10
2018-11-03T22:05:58.699Z,17.37
2018-11-03T22:08:25.877Z,19.40
2018-11-03T22:10:53.082Z,21.33
2018-11-03T22:13:20.281Z,19.20
2018-11-03T22:15:47.479Z,15.70
2018-11-03T22:18:14.642Z,27.13
2018-11-03T22:20:42.703Z,18.60
2018-11-03T22:23:09.907Z,15.20
2018-11-03T22:25:37.072Z,17.90
2018-11-03T22:28:04.611Z,21.83
2018-11-03T22:30:31.694Z,16.30
2018-11-03T22:32:58.903Z,22.70
2018-11-03T22:35:26.072Z,20.20
2018-11-03T22:37:53.238Z,17.00
2018-11-03T22:40:20.427Z,19.50
2018-11-03T22:42:47.634Z,20.17
2018-11-03T22:45:14.831Z,16.00
2018-11-03T22:47:42.040Z,15.10
2018-11-03T22:50:09.234Z,15.73
2018-11-03T22:52:36.441Z,16.93
2018-11-03T22:55:03.578Z,16.20
2018-11-03T22:57:30.763Z,16.23
2018-11-03T22:59:57.964Z,15.70
2018-11-03T23:02:25.160Z,18.37
2018-11-03T23:04:52.350Z,17.73
2018-11-03T23:07:19.550Z,17.87
2018-11-03T23:09:46.719Z,15.57
2018-11-03T23:12:13.900Z,15.13
2018-11-03T23:14:41.311Z,20.07
2018-11-03T23:17:08.514Z,19.20
2018-11-03T23:19:35.700Z,16.90
2018-11-03T23:22:02.936Z,16.43
2018-11-03T23:24:30.069Z,17.63
2018-11-03T23:26:57.256Z,30.23
2018-11-03T23:29:24.856Z,29.17
2018-11-03T23:31:52.024Z,35.00
2018-11-03T23:34:19.235Z,36.13
2018-11-03T23:36:46.406Z,49.70
2018-11-03T23:39:13.612Z,39.63
2018-11-03T23:41:41.038Z,30.73
2018-11-03T23:44:08.559Z,29.40
2018-11-03T23:46:35.909Z,23.03
2018-11-03T23:49:03.118Z,26.53
2018-11-03T23:51:30.306Z,25.83
2018-11-03T23:53:57.474Z,22.17
2018-11-03T23:56:25.051Z,20.00
2018-11-03T23:58:52.206Z,18.83
